createdAt,value
2022-10-01T00:01:18.416Z,12.00
2022-10-01T00:03:47.046Z,11.90
2022-10-01T00:06:24.723Z,11.90
2022-10-01T00:08:52.510Z,11.90
2022-10-01T00:11:23.521Z,12.00
2022-10-01T00:13:51.798Z,12.00
2022-10-01T00:16:21.292Z,12.00
2022-10-01T00:18:49.139Z,11.90
2022-10-01T00:21:22.151Z,11.90
2022-10-01T00:23:55.628Z,12.00
2022-10-01T00:26:27.093Z,11.90
2022-10-01T00:28:56.889Z,12.00
2022-10-01T00:31:25.065Z,11.90
2022-10-01T00:33:53.739Z,12.00
2022-10-01T00:36:21.604Z,12.10
2022-10-01T00:38:48.731Z,12.10
2022-10-01T00:41:17.047Z,12.20
2022-10-01T00:43:47.318Z,12.10
2022-10-01T00:46:21.602Z,12.10
2022-10-01T00:49:07.011Z,12.10
2022-10-01T00:51:41.775Z,12.10
2022-10-01T00:54:14.242Z,12.10
2022-10-01T00:56:42.865Z,12.10
2022-10-01T00:59:11.722Z,12.10
2022-10-01T01:01:39.325Z,12.10
2022-10-01T01:04:16.198Z,12.20
2022-10-01T01:06:53.653Z,12.20
2022-10-01T01:09:25.586Z,12.20
2022-10-01T01:12:12.379Z,12.20
2022-10-01T01:15:04.744Z,12.20
2022-10-01T01:17:53.272Z,12.30
2022-10-01T01:20:46.056Z,12.30
2022-10-01T01:23:16.296Z,12.30
2022-10-01T01:25:59.521Z,12.20
2022-10-01T01:28:38.487Z,12.30
2022-10-01T01:31:10.193Z,12.40
2022-10-01T01:33:40.338Z,12.60
2022-10-01T01:36:13.728Z,12.30
2022-10-01T01:38:46.214Z,12.30
2022-10-01T01:41:17.895Z,12.40
2022-10-01T01:43:48.139Z,12.40
2022-10-01T01:46:17.587Z,12.30
2022-10-01T01:48:49.389Z,12.40
2022-10-01T01:51:25.967Z,12.30
2022-10-01T01:53:54.279Z,12.40
2022-10-01T01:56:21.527Z,12.40
2022-10-01T01:58:49.068Z,12.50
2022-10-01T02:01:40.215Z,12.50
2022-10-01T02:04:18.666Z,12.50
2022-10-01T02:07:07.612Z,12.50
2022-10-01T02:09:46.976Z,12.50
2022-10-01T02:12:32.408Z,12.60
2022-10-01T02:15:11.739Z,12.60
2022-10-01T02:18:09.404Z,12.60
2022-10-01T02:20:45.865Z,12.60
2022-10-01T02:23:19.573Z,12.70
2022-10-01T02:25:52.083Z,12.70
2022-10-01T02:28:22.968Z,12.70
2022-10-01T02:30:55.195Z,12.80
2022-10-01T02:33:27.183Z,12.80
2022-10-01T02:35:56.926Z,12.80
2022-10-01T02:38:25.709Z,12.90
2022-10-01T02:40:58.723Z,12.90
2022-10-01T02:43:32.136Z,12.80
2022-10-01T02:46:28.286Z,12.90
2022-10-01T02:48:56.786Z,13.00
2022-10-01T02:51:37.122Z,13.00
2022-10-01T02:54:13.953Z,13.10
2022-10-01T02:57:00.251Z,13.10
2022-10-01T02:59:27.416Z,13.20
2022-10-01T03:01:54.931Z,13.20
2022-10-01T03:04:22.161Z,13.30
2022-10-01T03:06:49.336Z,13.30
2022-10-01T03:09:16.487Z,13.30
2022-10-01T03:11:43.647Z,13.40
2022-10-01T03:14:11.043Z,13.40
2022-10-01T03:16:38.156Z,13.40
2022-10-01T03:19:05.397Z,13.50
2022-10-01T03:21:32.783Z,13.40
2022-10-01T03:24:00.254Z,13.50
2022-10-01T03:26:27.522Z,13.40
2022-10-01T03:28:54.636Z,13.40
2022-10-01T03:31:21.862Z,13.50
2022-10-01T03:33:49.102Z,13.50
2022-10-01T03:36:16.341Z,13.50
2022-10-01T03:38:43.531Z,13.60
2022-10-01T03:41:10.697Z,13.60
2022-10-01T03:43:37.847Z,13.60
2022-10-01T03:46:05.074Z,13.60
2022-10-01T03:48:32.283Z,13.70
2022-10-01T03:51:00.318Z,13.70
2022-10-01T03:53:28.310Z,13.80
2022-10-01T03:55:55.672Z,13.70
2022-10-01T03:58:23.272Z,13.80
2022-10-01T04:00:51.221Z,13.80
2022-10-01T04:03:18.533Z,13.80
2022-10-01T04:05:46.041Z,13.80
2022-10-01T04:08:14.237Z,13.80
2022-10-01T04:10:42.058Z,13.80
2022-10-01T04:13:09.222Z,13.90
2022-10-01T04:15:36.591Z,13.90
2022-10-01T04:18:05.951Z,14.00
2022-10-01T04:20:34.830Z,14.00
2022-10-01T04:23:02.247Z,14.00
2022-10-01T04:25:29.991Z,14.10
2022-10-01T04:28:00.286Z,14.00
2022-10-01T04:30:30.854Z,14.00
2022-10-01T04:32:58.496Z,14.00
2022-10-01T04:35:26.273Z,14.00
2022-10-01T04:38:03.410Z,14.10
2022-10-01T04:40:32.406Z,14.00
2022-10-01T04:42:59.674Z,14.00
2022-10-01T04:45:26.849Z,14.00
2022-10-01T04:47:56.184Z,14.00
2022-10-01T04:50:24.974Z,14.00
2022-10-01T04:52:52.641Z,14.00
2022-10-01T04:55:20.913Z,14.00
2022-10-01T04:57:48.379Z,14.00
2022-10-01T05:00:18.304Z,14.10
2022-10-01T05:02:49.970Z,14.10
2022-10-01T05:05:18.846Z,14.10
2022-10-01T05:07:46.542Z,14.10
2022-10-01T05:10:19.723Z,14.10
2022-10-01T05:12:47.873Z,14.10
2022-10-01T05:15:16.631Z,14.10
2022-10-01T05:17:43.982Z,14.10
2022-10-01T05:20:19.976Z,14.00
2022-10-01T05:22:48.875Z,14.10
2022-10-01T05:25:17.750Z,14.10
2022-10-01T05:27:45.376Z,14.00
2022-10-01T05:30:14.730Z,14.00
2022-10-01T05:32:41.857Z,14.00
2022-10-01T05:35:11.902Z,14.00
2022-10-01T05:37:39.046Z,14.00
2022-10-01T05:40:06.509Z,14.00
2022-10-01T05:42:33.645Z,14.00
2022-10-01T05:45:01.509Z,14.00
2022-10-01T05:47:28.685Z,14.10
2022-10-01T05:49:55.859Z,14.00
2022-10-01T05:52:22.969Z,14.00
2022-10-01T05:54:50.115Z,14.00
2022-10-01T05:57:17.237Z,14.10
2022-10-01T05:59:44.358Z,14.20
2022-10-01T06:02:11.505Z,14.20
2022-10-01T06:04:41.221Z,14.20
2022-10-01T06:07:08.692Z,14.30
2022-10-01T06:09:35.810Z,14.40
2022-10-01T06:12:05.443Z,14.40
2022-10-01T06:14:32.579Z,14.50
2022-10-01T06:16:59.735Z,14.50
2022-10-01T06:19:26.827Z,14.50
2022-10-01T06:21:53.951Z,14.60
2022-10-01T06:24:21.051Z,14.60
2022-10-01T06:26:48.934Z,14.60
2022-10-01T06:29:16.104Z,14.60
2022-10-01T06:31:43.282Z,14.60
2022-10-01T06:34:10.414Z,14.70
2022-10-01T06:36:37.549Z,14.70
2022-10-01T06:39:04.695Z,14.80
2022-10-01T06:41:32.029Z,14.80
2022-10-01T06:43:59.305Z,14.90
2022-10-01T06:46:26.488Z,15.00
2022-10-01T06:48:53.666Z,15.00
2022-10-01T06:51:40.781Z,15.20
2022-10-01T06:54:07.906Z,15.50
2022-10-01T06:56:35.512Z,15.70
2022-10-01T06:59:03.779Z,16.10
2022-10-01T07:01:32.874Z,16.20
2022-10-01T07:04:00.458Z,16.40
2022-10-01T07:06:28.019Z,16.30
2022-10-01T07:08:55.434Z,16.30
2022-10-01T07:11:22.526Z,16.10
2022-10-01T07:13:54.360Z,15.90
2022-10-01T07:16:21.961Z,15.80
2022-10-01T07:18:49.130Z,15.60
2022-10-01T07:21:16.245Z,15.50
2022-10-01T07:23:43.393Z,15.40
2022-10-01T07:26:10.561Z,15.30
2022-10-01T07:28:37.763Z,15.30
2022-10-01T07:31:12.343Z,15.30
2022-10-01T07:33:40.089Z,15.50
2022-10-01T07:36:08.705Z,15.60
2022-10-01T07:38:36.246Z,15.80
2022-10-01T07:41:03.591Z,16.00
2022-10-01T07:43:32.168Z,16.30
2022-10-01T07:46:00.225Z,16.60
2022-10-01T07:48:27.946Z,17.00
2022-10-01T07:50:55.326Z,17.30
2022-10-01T07:53:24.015Z,17.30
2022-10-01T07:55:51.167Z,17.60
2022-10-01T07:58:18.721Z,18.10
2022-10-01T08:00:45.975Z,18.10
2022-10-01T08:03:13.178Z,17.90
2022-10-01T08:05:42.631Z,17.60
2022-10-01T08:08:10.236Z,17.50
2022-10-01T08:10:38.770Z,17.70
2022-10-01T08:13:14.174Z,18.00
2022-10-01T08:15:42.863Z,18.30
2022-10-01T08:18:11.240Z,18.60
2022-10-01T08:20:39.720Z,18.60
2022-10-01T08:23:10.332Z,18.20
2022-10-01T08:25:40.674Z,17.80
2022-10-01T08:28:09.260Z,18.70
2022-10-01T08:30:41.460Z,19.20
2022-10-01T08:33:10.923Z,22.50
2022-10-01T08:35:40.212Z,25.50
2022-10-01T08:38:08.059Z,27.70
2022-10-01T08:40:40.829Z,28.40
2022-10-01T08:43:27.558Z,27.80
2022-10-01T08:45:59.677Z,26.60
2022-10-01T08:48:57.195Z,25.20
2022-10-01T08:51:39.858Z,23.70
2022-10-01T08:54:20.255Z,23.40
2022-10-01T08:56:47.923Z,22.80
2022-10-01T08:59:29.510Z,24.00
2022-10-01T09:01:59.003Z,26.40
2022-10-01T09:04:27.561Z,27.00
2022-10-01T09:07:23.665Z,27.60
2022-10-01T09:10:09.694Z,27.70
2022-10-01T09:13:04.679Z,25.50
2022-10-01T09:15:39.651Z,22.70
2022-10-01T09:18:38.719Z,20.80
2022-10-01T09:21:33.060Z,21.50
2022-10-01T09:24:10.182Z,25.90
2022-10-01T09:26:41.446Z,29.40
2022-10-01T09:29:15.553Z,31.00
2022-10-01T09:31:47.197Z,31.10
2022-10-01T09:34:19.254Z,30.60
2022-10-01T09:37:07.488Z,29.20
2022-10-01T09:40:22.162Z,26.10
2022-10-01T09:42:49.614Z,23.50
2022-10-01T09:45:18.610Z,21.90
2022-10-01T09:47:50.374Z,21.50
2022-10-01T09:50:30.838Z,21.10
2022-10-01T09:53:00.878Z,21.00
2022-10-01T09:55:39.088Z,21.90
2022-10-01T09:58:19.167Z,22.60
2022-10-01T10:00:48.257Z,25.70
2022-10-01T10:03:30.819Z,24.70
2022-10-01T10:06:02.187Z,26.70
2022-10-01T10:08:40.225Z,29.30
2022-10-01T10:11:10.455Z,30.50
2022-10-01T10:13:40.951Z,31.60
2022-10-01T10:16:24.788Z,30.60
2022-10-01T10:18:56.161Z,27.60
2022-10-01T10:21:29.571Z,24.80
2022-10-01T10:23:59.442Z,23.30
2022-10-01T10:26:32.443Z,23.20
2022-10-01T10:29:05.578Z,22.80
2022-10-01T10:31:44.694Z,21.60
2022-10-01T10:34:16.418Z,20.60
2022-10-01T10:36:45.554Z,19.90
2022-10-01T10:39:29.264Z,19.50
2022-10-01T10:41:58.716Z,20.00
2022-10-01T10:44:31.915Z,19.80
2022-10-01T10:47:02.571Z,20.20
2022-10-01T10:49:32.302Z,19.70
2022-10-01T10:52:01.203Z,19.50
2022-10-01T10:54:34.254Z,19.20
2022-10-01T10:57:21.235Z,20.80
2022-10-01T11:00:04.603Z,23.50
2022-10-01T11:02:33.541Z,26.50
2022-10-01T11:05:05.461Z,30.10
2022-10-01T11:07:33.265Z,31.00
2022-10-01T11:10:08.353Z,30.60
2022-10-01T11:12:56.382Z,31.00
2022-10-01T11:15:29.938Z,32.60
2022-10-01T11:18:27.820Z,33.60
2022-10-01T11:21:16.858Z,34.30
2022-10-01T11:23:56.185Z,32.70
2022-10-01T11:26:45.762Z,30.70
2022-10-01T11:29:30.650Z,30.30
2022-10-01T11:32:27.596Z,30.00
2022-10-01T11:35:23.072Z,31.80
2022-10-01T11:38:06.099Z,34.70
2022-10-01T11:40:41.330Z,35.30
2022-10-01T11:43:34.293Z,32.30
2022-10-01T11:46:09.801Z,31.90
2022-10-01T11:48:46.421Z,30.30
2022-10-01T11:51:17.901Z,30.30
2022-10-01T11:53:50.278Z,28.20
2022-10-01T11:56:42.742Z,27.40
2022-10-01T11:59:22.397Z,28.80
2022-10-01T12:02:19.050Z,31.00
2022-10-01T12:04:58.087Z,30.50
2022-10-01T12:07:44.005Z,30.00
2022-10-01T12:10:34.362Z,30.20
2022-10-01T12:13:07.691Z,29.40
2022-10-01T12:15:41.763Z,26.30
2022-10-01T12:18:20.674Z,23.70
2022-10-01T12:21:01.358Z,23.50
2022-10-01T12:23:34.645Z,24.70
2022-10-01T12:26:29.636Z,23.50
2022-10-01T12:29:06.610Z,24.40
2022-10-01T12:31:41.739Z,25.20
2022-10-01T12:34:29.872Z,27.20
2022-10-01T12:37:34.911Z,29.30
2022-10-01T12:40:32.634Z,29.20
2022-10-01T12:43:31.831Z,30.40
2022-10-01T12:46:22.311Z,27.20
2022-10-01T12:49:01.929Z,24.80
2022-10-01T12:51:54.569Z,22.70
2022-10-01T12:54:58.950Z,21.80
2022-10-01T12:57:28.881Z,25.20
2022-10-01T13:00:05.084Z,26.70
2022-10-01T13:02:35.175Z,25.80
2022-10-01T13:05:29.658Z,25.60
2022-10-01T13:08:24.727Z,24.30
2022-10-01T13:11:24.790Z,23.30
2022-10-01T13:13:53.142Z,22.10
2022-10-01T13:16:40.430Z,22.60
2022-10-01T13:19:24.772Z,24.10
2022-10-01T13:22:18.426Z,22.90
2022-10-01T13:24:51.183Z,21.60
2022-10-01T13:27:28.355Z,20.70
2022-10-01T13:29:59.908Z,20.70
2022-10-01T13:32:57.686Z,21.70
2022-10-01T13:35:35.900Z,23.10
2022-10-01T13:38:17.340Z,25.00
2022-10-01T13:40:44.719Z,23.90
2022-10-01T13:43:20.640Z,22.50
2022-10-01T13:45:50.687Z,21.50
2022-10-01T13:48:23.496Z,21.00
2022-10-01T13:51:04.972Z,21.20
2022-10-01T13:53:44.863Z,21.80
2022-10-01T13:56:26.471Z,21.30
2022-10-01T13:58:54.651Z,20.60
2022-10-01T14:01:24.803Z,21.20
2022-10-01T14:04:05.107Z,22.20
2022-10-01T14:06:35.274Z,22.90
2022-10-01T14:09:19.216Z,22.90
2022-10-01T14:12:14.377Z,22.70
2022-10-01T14:15:08.550Z,23.90
2022-10-01T14:17:37.031Z,24.30
2022-10-01T14:20:05.088Z,24.60
2022-10-01T14:22:41.006Z,24.70
2022-10-01T14:25:17.098Z,24.70
2022-10-01T14:27:59.290Z,25.20
2022-10-01T14:31:04.512Z,25.50
2022-10-01T14:34:06.567Z,24.90
2022-10-01T14:36:47.129Z,22.70
2022-10-01T14:39:18.338Z,20.80
2022-10-01T14:41:47.205Z,20.80
2022-10-01T14:44:36.236Z,21.60
2022-10-01T14:47:19.783Z,22.20
2022-10-01T14:49:48.426Z,22.60
2022-10-01T14:52:28.630Z,22.40
2022-10-01T14:55:04.472Z,21.90
2022-10-01T14:57:47.237Z,22.40
2022-10-01T15:00:20.376Z,22.90
2022-10-01T15:02:49.909Z,22.90
2022-10-01T15:05:21.875Z,23.10
2022-10-01T15:07:49.197Z,23.10
2022-10-01T15:10:18.922Z,22.80
2022-10-01T15:12:50.297Z,21.90
2022-10-01T15:15:24.525Z,21.10
2022-10-01T15:17:52.351Z,20.50
2022-10-01T15:20:19.804Z,20.00
2022-10-01T15:22:49.082Z,19.70
2022-10-01T15:25:25.582Z,19.40
2022-10-01T15:27:56.678Z,19.10
2022-10-01T15:30:26.452Z,19.00
2022-10-01T15:32:54.353Z,18.90
2022-10-01T15:35:23.396Z,18.70
2022-10-01T15:37:51.706Z,18.60
2022-10-01T15:40:30.574Z,18.50
2022-10-01T15:43:24.155Z,18.50
2022-10-01T15:46:17.255Z,18.60
2022-10-01T15:48:46.524Z,18.70
2022-10-01T15:51:13.994Z,19.90
2022-10-01T15:53:41.312Z,18.80
2022-10-01T15:56:12.974Z,18.50
2022-10-01T15:58:52.108Z,17.90
2022-10-01T16:01:26.830Z,17.60
2022-10-01T16:04:04.493Z,17.40
2022-10-01T16:06:47.191Z,17.30
2022-10-01T16:09:18.542Z,17.10
2022-10-01T16:11:59.921Z,17.00
2022-10-01T16:14:43.773Z,16.90
2022-10-01T16:17:17.184Z,16.90
2022-10-01T16:19:48.749Z,16.90
2022-10-01T16:22:29.335Z,16.90
2022-10-01T16:25:00.207Z,17.00
2022-10-01T16:27:28.497Z,17.40
2022-10-01T16:30:05.334Z,17.60
2022-10-01T16:32:34.150Z,17.80
2022-10-01T16:35:23.086Z,18.10
2022-10-01T16:37:52.840Z,18.40
2022-10-01T16:40:22.246Z,18.40
2022-10-01T16:42:50.594Z,18.40
2022-10-01T16:45:27.573Z,18.40
2022-10-01T16:47:56.701Z,18.20
2022-10-01T16:50:24.983Z,18.20
2022-10-01T16:52:53.756Z,18.20
2022-10-01T16:55:27.282Z,18.00
2022-10-01T16:57:54.797Z,17.80
2022-10-01T17:00:25.641Z,17.60
2022-10-01T17:02:54.380Z,17.40
2022-10-01T17:05:29.314Z,17.30
2022-10-01T17:08:05.085Z,17.20
2022-10-01T17:10:36.429Z,17.20
2022-10-01T17:13:03.859Z,17.10
2022-10-01T17:15:32.065Z,17.00
2022-10-01T17:17:59.551Z,16.90
2022-10-01T17:20:29.212Z,16.70
2022-10-01T17:22:58.187Z,16.60
2022-10-01T17:25:32.179Z,16.60
2022-10-01T17:28:02.325Z,16.40
2022-10-01T17:30:30.708Z,16.40
2022-10-01T17:32:59.843Z,16.30
2022-10-01T17:35:29.687Z,16.20
2022-10-01T17:37:57.105Z,16.10
2022-10-01T17:40:24.339Z,16.10
2022-10-01T17:42:51.622Z,16.00
2022-10-01T17:45:18.836Z,16.00
2022-10-01T17:47:48.272Z,15.90
2022-10-01T17:50:16.345Z,15.90
2022-10-01T17:52:46.485Z,15.90
2022-10-01T17:55:13.776Z,15.80
2022-10-01T17:57:40.942Z,15.70
2022-10-01T18:00:08.870Z,15.70
2022-10-01T18:02:43.084Z,15.60
2022-10-01T18:05:12.743Z,15.60
2022-10-01T18:07:40.656Z,15.50
2022-10-01T18:10:11.220Z,15.50
2022-10-01T18:12:38.527Z,15.50
2022-10-01T18:15:06.207Z,15.40
2022-10-01T18:17:36.335Z,15.40
2022-10-01T18:20:07.091Z,15.40
2022-10-01T18:22:37.735Z,15.40
2022-10-01T18:25:06.875Z,15.40
2022-10-01T18:27:35.729Z,15.40
2022-10-01T18:30:02.999Z,15.30
2022-10-01T18:32:38.005Z,15.20
2022-10-01T18:35:18.933Z,15.30
2022-10-01T18:37:58.302Z,15.20
2022-10-01T18:40:36.253Z,15.20
2022-10-01T18:43:13.603Z,15.10
2022-10-01T18:45:52.765Z,15.10
2022-10-01T18:48:22.898Z,15.10
2022-10-01T18:51:09.604Z,15.10
2022-10-01T18:53:55.536Z,15.10
2022-10-01T18:56:33.528Z,15.00
2022-10-01T18:59:39.797Z,15.00
2022-10-01T19:02:50.311Z,15.00
2022-10-01T19:05:54.581Z,15.00
2022-10-01T19:08:49.942Z,15.10
2022-10-01T19:11:38.204Z,15.20
2022-10-01T19:14:26.358Z,15.20
2022-10-01T19:17:05.762Z,15.20
2022-10-01T19:19:47.608Z,15.30
2022-10-01T19:22:46.394Z,15.40
2022-10-01T19:25:33.115Z,15.50
2022-10-01T19:28:11.895Z,15.60
2022-10-01T19:31:08.425Z,15.60
2022-10-01T19:33:44.253Z,15.70
2022-10-01T19:36:34.696Z,15.70
2022-10-01T19:39:08.820Z,15.50
2022-10-01T19:41:42.998Z,15.50
2022-10-01T19:44:16.667Z,15.50
2022-10-01T19:46:47.243Z,15.40
2022-10-01T19:49:14.393Z,15.40
2022-10-01T19:51:57.046Z,15.30
2022-10-01T19:54:32.520Z,15.20
2022-10-01T19:57:09.565Z,15.20
2022-10-01T19:59:36.826Z,15.10
2022-10-01T20:02:15.620Z,15.00
2022-10-01T20:04:56.118Z,14.90
2022-10-01T20:07:37.121Z,14.90
2022-10-01T20:10:20.045Z,14.90
2022-10-01T20:13:09.434Z,14.90
2022-10-01T20:16:22.367Z,14.90
2022-10-01T20:19:04.813Z,14.90
2022-10-01T20:21:59.427Z,14.90
2022-10-01T20:24:51.810Z,14.90
2022-10-01T20:27:31.092Z,14.90
2022-10-01T20:30:06.112Z,14.90
2022-10-01T20:32:40.174Z,14.90
2022-10-01T20:35:16.301Z,14.90
2022-10-01T20:37:46.422Z,14.80
2022-10-01T20:40:25.540Z,14.80
2022-10-01T20:43:17.642Z,14.80
2022-10-01T20:45:47.399Z,14.70
2022-10-01T20:48:40.734Z,14.70
2022-10-01T20:51:32.444Z,14.70
2022-10-01T20:54:06.599Z,14.60
2022-10-01T20:56:39.834Z,14.70
2022-10-01T20:59:21.338Z,14.70
2022-10-01T21:02:02.328Z,14.60
2022-10-01T21:04:37.589Z,14.70
2022-10-01T21:07:26.813Z,14.70
2022-10-01T21:09:57.384Z,14.70
2022-10-01T21:12:37.865Z,14.70
2022-10-01T21:15:06.936Z,14.70
2022-10-01T21:18:11.193Z,14.70
2022-10-01T21:20:51.546Z,14.70
2022-10-01T21:23:46.127Z,14.70
2022-10-01T21:26:25.685Z,14.70
2022-10-01T21:29:11.666Z,14.80
2022-10-01T21:32:07.593Z,14.70
2022-10-01T21:35:13.160Z,14.70
2022-10-01T21:37:43.048Z,14.60
2022-10-01T21:40:25.087Z,14.60
2022-10-01T21:43:04.308Z,14.60
2022-10-01T21:45:39.014Z,14.50
2022-10-01T21:48:18.537Z,14.60
2022-10-01T21:50:59.162Z,14.60
2022-10-01T21:53:29.850Z,14.70
2022-10-01T21:56:21.954Z,14.80
2022-10-01T21:59:08.780Z,15.00
2022-10-01T22:01:50.983Z,15.00
2022-10-01T22:04:48.308Z,15.00
2022-10-01T22:07:36.277Z,15.00
2022-10-01T22:10:12.545Z,15.00
2022-10-01T22:12:42.194Z,14.80
2022-10-01T22:15:25.729Z,14.70
2022-10-01T22:17:54.859Z,14.60
2022-10-01T22:20:27.526Z,14.60
2022-10-01T22:22:59.086Z,14.60
2022-10-01T22:25:28.540Z,14.50
2022-10-01T22:28:19.736Z,14.50
2022-10-01T22:30:49.290Z,14.50
2022-10-01T22:33:27.603Z,14.50
2022-10-01T22:36:06.881Z,14.60
2022-10-01T22:38:51.311Z,14.60
2022-10-01T22:41:31.209Z,14.60
2022-10-01T22:43:59.628Z,14.60
2022-10-01T22:47:07.413Z,14.70
2022-10-01T22:50:06.126Z,14.50
2022-10-01T22:52:55.083Z,14.40
2022-10-01T22:55:37.830Z,14.30
2022-10-01T22:58:43.995Z,14.20
2022-10-01T23:01:23.150Z,14.20
2022-10-01T23:04:05.884Z,14.10
2022-10-01T23:07:00.220Z,14.10
2022-10-01T23:09:35.565Z,14.10
2022-10-01T23:12:17.514Z,14.00
2022-10-01T23:15:09.786Z,14.00
2022-10-01T23:18:06.712Z,14.00
2022-10-01T23:20:46.897Z,14.00
2022-10-01T23:23:34.624Z,14.00
2022-10-01T23:26:29.675Z,14.00
2022-10-01T23:29:21.424Z,14.00
2022-10-01T23:32:23.773Z,14.10
2022-10-01T23:34:53.717Z,14.10
2022-10-01T23:37:51.692Z,14.30
2022-10-01T23:40:22.587Z,14.40
2022-10-01T23:42:55.457Z,14.30
2022-10-01T23:45:41.752Z,14.20
2022-10-01T23:48:09.019Z,14.00
2022-10-01T23:51:05.185Z,13.90
2022-10-01T23:54:02.193Z,13.80
2022-10-01T23:56:57.361Z,13.70
2022-10-01T23:59:38.718Z,13.70
